sensor_id;sensor_type;location;lat;lon;timestamp;pressure;altitude;pressure_sealevel;temperature;humidity
54994;BME280;40891;47.242;8.648;2023-05-12T00:00:16;96018.63;;;10.90;100.00
54994;BME280;40891;47.242;8.648;2023-05-12T00:02:42;96019.84;;;10.99;100.00
54994;BME280;40891;47.242;8.648;2023-05-12T00:05:08;96012.28;;;10.99;100.00
54994;BME280;40891;47.242;8.648;2023-05-12T00:07:33;96003.03;;;11.02;100.00
54994;BME280;40891;47.242;8.648;2023-05-12T00:09:58;96006.91;;;11.05;100.00
54994;BME280;40891;47.242;8.648;2023-05-12T00:12:24;96007.97;;;11.07;100.00
54994;BME280;40891;47.242;8.648;2023-05-12T00:14:49;96000.84;;;11.06;100.00
54994;BME280;40891;47.242;8.648;2023-05-12T00:17:14;96001.31;;;11.05;100.00
54994;BME280;40891;47.242;8.648;2023-05-12T00:19:40;96000.38;;;11.08;100.00
54994;BME280;40891;47.242;8.648;2023-05-12T00:22:11;96007.50;;;11.09;100.00
54994;BME280;40891;47.242;8.648;2023-05-12T00:24:36;96001.94;;;11.09;100.00
54994;BME280;40891;47.242;8.648;2023-05-12T00:27:02;95999.44;;;11.11;100.00
54994;BME280;40891;47.242;8.648;2023-05-12T00:29:27;96001.47;;;11.10;100.00
54994;BME280;40891;47.242;8.648;2023-05-12T00:31:54;95997.16;;;11.09;100.00
54994;BME280;40891;47.242;8.648;2023-05-12T00:34:20;95997.59;;;11.08;100.00
54994;BME280;40891;47.242;8.648;2023-05-12T00:36:45;95998.06;;;11.06;100.00
54994;BME280;40891;47.242;8.648;2023-05-12T00:39:10;95993.13;;;11.01;100.00
54994;BME280;40891;47.242;8.648;2023-05-12T00:41:36;96000.69;;;11.01;100.00
54994;BME280;40891;47.242;8.648;2023-05-12T00:44:01;95995.59;;;10.99;100.00
54994;BME280;40891;47.242;8.648;2023-05-12T00:46:26;95992.97;;;10.95;100.00
54994;BME280;40891;47.242;8.648;2023-05-12T00:48:52;95997.91;;;10.91;100.00
54994;BME280;40891;47.242;8.648;2023-05-12T00:51:17;95999.47;;;10.92;100.00
54994;BME280;40891;47.242;8.648;2023-05-12T00:53:43;95996.41;;;10.90;100.00
54994;BME280;40891;47.242;8.648;2023-05-12T00:56:08;95993.13;;;10.92;100.00
54994;BME280;40891;47.242;8.648;2023-05-12T00:58:34;95995.00;;;10.95;100.00
54994;BME280;40891;47.242;8.648;2023-05-12T01:00:59;95995.59;;;10.99;100.00
54994;BME280;40891;47.242;8.648;2023-05-12T01:03:25;95993.44;;;11.03;100.00
54994;BME280;40891;47.242;8.648;2023-05-12T01:05:59;95984.78;;;11.01;100.00
54994;BME280;40891;47.242;8.648;2023-05-12T01:08:25;95989.13;;;11.02;100.00
54994;BME280;40891;47.242;8.648;2023-05-12T01:10:51;95992.81;;;10.99;100.00
54994;BME280;40891;47.242;8.648;2023-05-12T01:13:16;95989.75;;;10.97;100.00
54994;BME280;40891;47.242;8.648;2023-05-12T01:15:45;95988.34;;;11.02;100.00
54994;BME280;40891;47.242;8.648;2023-05-12T01:18:12;95982.94;;;11.07;100.00
54994;BME280;40891;47.242;8.648;2023-05-12T01:20:41;95978.91;;;11.08;100.00
54994;BME280;40891;47.242;8.648;2023-05-12T01:23:07;95981.84;;;11.14;100.00
54994;BME280;40891;47.242;8.648;2023-05-12T01:25:34;95976.41;;;11.10;100.00
54994;BME280;40891;47.242;8.648;2023-05-12T01:28:02;95971.63;;;11.11;100.00
54994;BME280;40891;47.242;8.648;2023-05-12T01:30:28;95972.41;;;11.11;100.00
54994;BME280;40891;47.242;8.648;2023-05-12T01:32:54;95972.88;;;11.01;100.00
54994;BME280;40891;47.242;8.648;2023-05-12T01:35:19;95978.44;;;11.01;100.00
54994;BME280;40891;47.242;8.648;2023-05-12T01:37:44;95976.44;;;11.01;100.00
54994;BME280;40891;47.242;8.648;2023-05-12T01:40:10;95978.91;;;10.99;100.00
54994;BME280;40891;47.242;8.648;2023-05-12T01:42:38;95978.44;;;10.91;100.00
54994;BME280;40891;47.242;8.648;2023-05-12T01:45:04;95975.06;;;10.87;100.00
54994;BME280;40891;47.242;8.648;2023-05-12T01:47:29;95978.28;;;11.04;100.00
54994;BME280;40891;47.242;8.648;2023-05-12T01:49:55;95974.44;;;11.02;100.00
54994;BME280;40891;47.242;8.648;2023-05-12T01:52:21;95980.28;;;11.04;100.00
54994;BME280;40891;47.242;8.648;2023-05-12T01:54:46;95984.63;;;10.95;100.00
54994;BME280;40891;47.242;8.648;2023-05-12T01:57:11;95987.72;;;10.88;100.00
54994;BME280;40891;47.242;8.648;2023-05-12T01:59:37;95982.47;;;10.90;100.00
54994;BME280;40891;47.242;8.648;2023-05-12T02:02:02;95977.53;;;10.85;100.00
54994;BME280;40891;47.242;8.648;2023-05-12T02:04:27;95983.09;;;10.85;100.00
54994;BME280;40891;47.242;8.648;2023-05-12T02:06:53;95982.94;;;10.89;100.00
54994;BME280;40891;47.242;8.648;2023-05-12T02:09:18;95987.09;;;10.93;100.00
54994;BME280;40891;47.242;8.648;2023-05-12T02:11:43;95982.00;;;10.92;100.00
54994;BME280;40891;47.242;8.648;2023-05-12T02:14:09;95985.59;;;10.83;100.00
54994;BME280;40891;47.242;8.648;2023-05-12T02:16:34;95983.88;;;10.86;100.00
54994;BME280;40891;47.242;8.648;2023-05-12T02:18:59;95981.72;;;10.81;100.00
54994;BME280;40891;47.242;8.648;2023-05-12T02:21:25;95975.19;;;10.84;100.00
54994;BME280;40891;47.242;8.648;2023-05-12T02:23:52;95979.06;;;10.86;100.00
54994;BME280;40891;47.242;8.648;2023-05-12T02:26:17;95974.88;;;10.91;100.00
54994;BME280;40891;47.242;8.648;2023-05-12T02:28:43;95980.63;;;10.87;100.00
54994;BME280;40891;47.242;8.648;2023-05-12T02:31:08;95979.84;;;10.87;100.00
54994;BME280;40891;47.242;8.648;2023-05-12T02:33:34;95979.06;;;10.86;100.00
54994;BME280;40891;47.242;8.648;2023-05-12T02:35:59;95982.81;;;10.83;100.00
54994;BME280;40891;47.242;8.648;2023-05-12T02:38:24;95980.75;;;10.84;100.00
54994;BME280;40891;47.242;8.648;2023-05-12T02:40:50;95981.53;;;10.84;100.00
54994;BME280;40891;47.242;8.648;2023-05-12T02:43:15;95986.03;;;10.82;100.00
54994;BME280;40891;47.242;8.648;2023-05-12T02:45:40;95981.38;;;10.79;100.00
54994;BME280;40891;47.242;8.648;2023-05-12T02:48:06;95981.53;;;10.84;100.00
54994;BME280;40891;47.242;8.648;2023-05-12T02:50:31;95976.47;;;10.83;100.00
54994;BME280;40891;47.242;8.648;2023-05-12T02:52:56;95981.09;;;10.86;100.00
54994;BME280;40891;47.242;8.648;2023-05-12T02:55:22;95978.47;;;10.82;100.00
54994;BME280;40891;47.242;8.648;2023-05-12T02:57:47;95980.47;;;10.82;100.00
54994;BME280;40891;47.242;8.648;2023-05-12T03:00:13;95977.06;;;10.87;100.00
54994;BME280;40891;47.242;8.648;2023-05-12T03:02:39;95978.00;;;10.93;100.00
54994;BME280;40891;47.242;8.648;2023-05-12T03:05:04;95974.13;;;11.00;100.00
54994;BME280;40891;47.242;8.648;2023-05-12T03:07:30;95975.66;;;10.91;100.00
54994;BME280;40891;47.242;8.648;2023-05-12T03:09:56;95972.91;;;10.82;100.00
54994;BME280;40891;47.242;8.648;2023-05-12T03:12:22;95972.13;;;10.91;100.00
54994;BME280;40891;47.242;8.648;2023-05-12T03:14:47;95970.09;;;11.01;100.00
54994;BME280;40891;47.242;8.648;2023-05-12T03:17:12;95977.53;;;10.94;100.00
54994;BME280;40891;47.242;8.648;2023-05-12T03:19:38;95970.72;;;10.86;100.00
54994;BME280;40891;47.242;8.648;2023-05-12T03:22:03;95970.88;;;10.92;100.00
54994;BME280;40891;47.242;8.648;2023-05-12T03:24:31;95967.94;;;10.86;100.00
54994;BME280;40891;47.242;8.648;2023-05-12T03:26:57;95964.09;;;10.84;100.00
54994;BME280;40891;47.242;8.648;2023-05-12T03:29:23;95968.91;;;10.83;100.00
54994;BME280;40891;47.242;8.648;2023-05-12T03:31:48;95974.91;;;10.82;100.00
54994;BME280;40891;47.242;8.648;2023-05-12T03:34:13;95962.25;;;10.81;100.00
54994;BME280;40891;47.242;8.648;2023-05-12T03:36:39;95960.38;;;10.78;100.00
54994;BME280;40891;47.242;8.648;2023-05-12T03:39:05;95958.41;;;10.69;100.00
54994;BME280;40891;47.242;8.648;2023-05-12T03:41:32;95966.72;;;10.60;100.00
54994;BME280;40891;47.242;8.648;2023-05-12T03:43:58;95964.25;;;10.62;100.00
54994;BME280;40891;47.242;8.648;2023-05-12T03:46:24;95954.38;;;10.52;100.00
54994;BME280;40891;47.242;8.648;2023-05-12T03:48:49;95959.94;;;10.52;100.00
54994;BME280;40891;47.242;8.648;2023-05-12T03:51:14;95952.81;;;10.51;100.00
54994;BME280;40891;47.242;8.648;2023-05-12T03:53:40;95954.69;;;10.54;100.00
54994;BME280;40891;47.242;8.648;2023-05-12T03:56:09;95952.50;;;10.58;100.00
54994;BME280;40891;47.242;8.648;2023-05-12T03:58:35;95950.34;;;10.53;100.00
54994;BME280;40891;47.242;8.648;2023-05-12T04:01:00;95952.22;;;10.47;100.00
54994;BME280;40891;47.242;8.648;2023-05-12T04:03:27;95951.91;;;10.54;100.00
54994;BME280;40891;47.242;8.648;2023-05-12T04:06:02;95948.50;;;10.50;100.00
54994;BME280;40891;47.242;8.648;2023-05-12T04:08:28;95952.03;;;10.51;100.00
54994;BME280;40891;47.242;8.648;2023-05-12T04:10:55;95952.50;;;10.49;100.00
54994;BME280;40891;47.242;8.648;2023-05-12T04:13:21;95963.31;;;10.47;100.00
54994;BME280;40891;47.242;8.648;2023-05-12T04:15:47;95954.38;;;10.52;100.00
54994;BME280;40891;47.242;8.648;2023-05-12T04:18:13;95953.59;;;10.61;100.00
54994;BME280;40891;47.242;8.648;2023-05-12T04:20:38;95954.19;;;10.65;100.00
54994;BME280;40891;47.242;8.648;2023-05-12T04:23:04;95953.88;;;10.72;100.00
54994;BME280;40891;47.242;8.648;2023-05-12T04:25:29;95955.75;;;10.75;100.00
54994;BME280;40891;47.242;8.648;2023-05-12T04:27:54;95963.47;;;10.80;100.00
54994;BME280;40891;47.242;8.648;2023-05-12T04:30:20;95958.69;;;10.80;100.00
54994;BME280;40891;47.242;8.648;2023-05-12T04:32:46;95955.31;;;10.76;100.00
54994;BME280;40891;47.242;8.648;2023-05-12T04:35:12;95959.78;;;10.74;100.00
54994;BME280;40891;47.242;8.648;2023-05-12T04:37:37;95967.94;;;10.77;100.00
54994;BME280;40891;47.242;8.648;2023-05-12T04:40:04;95973.81;;;10.79;100.00
54994;BME280;40891;47.242;8.648;2023-05-12T04:42:29;95967.94;;;10.86;100.00
54994;BME280;40891;47.242;8.648;2023-05-12T04:44:55;95969.50;;;10.97;100.00
54994;BME280;40891;47.242;8.648;2023-05-12T04:47:20;95967.31;;;10.91;100.00
54994;BME280;40891;47.242;8.648;2023-05-12T04:49:46;95966.09;;;10.92;100.00
54994;BME280;40891;47.242;8.648;2023-05-12T04:52:11;95967.34;;;10.82;100.00
54994;BME280;40891;47.242;8.648;2023-05-12T04:54:36;95968.25;;;10.88;100.00
54994;BME280;40891;47.242;8.648;2023-05-12T04:57:03;95966.69;;;10.97;100.00
54994;BME280;40891;47.242;8.648;2023-05-12T04:59:28;95975.38;;;10.89;100.00
54994;BME280;40891;47.242;8.648;2023-05-12T05:01:55;95968.25;;;10.98;100.00
54994;BME280;40891;47.242;8.648;2023-05-12T05:04:21;95980.16;;;11.07;100.00
54994;BME280;40891;47.242;8.648;2023-05-12T05:06:46;95974.41;;;11.20;100.00
54994;BME280;40891;47.242;8.648;2023-05-12T05:09:11;95986.59;;;11.31;100.00
54994;BME280;40891;47.242;8.648;2023-05-12T05:11:37;95979.28;;;11.43;100.00
54994;BME280;40891;47.242;8.648;2023-05-12T05:14:02;95983.44;;;11.56;100.00
54994;BME280;40891;47.242;8.648;2023-05-12T05:16:27;95984.03;;;11.60;100.00
54994;BME280;40891;47.242;8.648;2023-05-12T05:18:53;95984.81;;;11.61;100.00
54994;BME280;40891;47.242;8.648;2023-05-12T05:21:18;95991.59;;;11.60;100.00
54994;BME280;40891;47.242;8.648;2023-05-12T05:23:43;95989.44;;;11.73;100.00
54994;BME280;40891;47.242;8.648;2023-05-12T05:26:09;95993.72;;;11.83;100.00
54994;BME280;40891;47.242;8.648;2023-05-12T05:28:35;95989.03;;;11.98;100.00
54994;BME280;40891;47.242;8.648;2023-05-12T05:31:01;95984.53;;;12.01;100.00
54994;BME280;40891;47.242;8.648;2023-05-12T05:33:27;95985.88;;;12.05;100.00
54994;BME280;40891;47.242;8.648;2023-05-12T05:35:52;95990.09;;;12.01;100.00
54994;BME280;40891;47.242;8.648;2023-05-12T05:38:17;95989.16;;;12.04;100.00
54994;BME280;40891;47.242;8.648;2023-05-12T05:40:43;95988.63;;;12.14;100.00
54994;BME280;40891;47.242;8.648;2023-05-12T05:43:08;95983.66;;;12.18;100.00
54994;BME280;40891;47.242;8.648;2023-05-12T05:45:34;95986.56;;;12.24;100.00
54994;BME280;40891;47.242;8.648;2023-05-12T05:48:00;95988.84;;;12.35;100.00
54994;BME280;40891;47.242;8.648;2023-05-12T05:50:25;95995.56;;;12.43;100.00
54994;BME280;40891;47.242;8.648;2023-05-12T05:52:50;95981.22;;;12.59;100.00
54994;BME280;40891;47.242;8.648;2023-05-12T05:55:16;95996.06;;;12.65;100.00
54994;BME280;40891;47.242;8.648;2023-05-12T05:57:41;95984.00;;;12.59;100.00
54994;BME280;40891;47.242;8.648;2023-05-12T06:00:07;95985.97;;;12.67;100.00
54994;BME280;40891;47.242;8.648;2023-05-12T06:02:34;95981.88;;;12.77;100.00
54994;BME280;40891;47.242;8.648;2023-05-12T06:04:59;95988.28;;;12.69;100.00
54994;BME280;40891;47.242;8.648;2023-05-12T06:07:25;95989.34;;;12.71;100.00
54994;BME280;40891;47.242;8.648;2023-05-12T06:09:52;95993.06;;;12.68;100.00
54994;BME280;40891;47.242;8.648;2023-05-12T06:12:17;95990.19;;;12.63;100.00
54994;BME280;40891;47.242;8.648;2023-05-12T06:14:43;95989.75;;;12.79;100.00
54994;BME280;40891;47.242;8.648;2023-05-12T06:17:08;95995.47;;;12.99;100.00
54994;BME280;40891;47.242;8.648;2023-05-12T06:19:33;95997.63;;;12.80;100.00
54994;BME280;40891;47.242;8.648;2023-05-12T06:21:59;95999.69;;;12.80;100.00
54994;BME280;40891;47.242;8.648;2023-05-12T06:24:24;95998.41;;;12.81;100.00
54994;BME280;40891;47.242;8.648;2023-05-12T06:26:50;96004.22;;;12.92;100.00
54994;BME280;40891;47.242;8.648;2023-05-12T06:29:15;96009.78;;;12.92;100.00
54994;BME280;40891;47.242;8.648;2023-05-12T06:31:40;96003.63;;;12.88;100.00
54994;BME280;40891;47.242;8.648;2023-05-12T06:34:05;95998.25;;;12.84;100.00
54994;BME280;40891;47.242;8.648;2023-05-12T06:36:31;96000.25;;;12.84;100.00
54994;BME280;40891;47.242;8.648;2023-05-12T06:38:57;96003.91;;;12.90;100.00
54994;BME280;40891;47.242;8.648;2023-05-12T06:41:23;95997.53;;;13.13;100.00
54994;BME280;40891;47.242;8.648;2023-05-12T06:43:49;96000.56;;;12.86;100.00
54994;BME280;40891;47.242;8.648;2023-05-12T06:46:15;95990.06;;;13.19;100.00
54994;BME280;40891;47.242;8.648;2023-05-12T06:48:40;95986.31;;;13.22;100.00
54994;BME280;40891;47.242;8.648;2023-05-12T06:51:06;95989.97;;;13.43;100.00
54994;BME280;40891;47.242;8.648;2023-05-12T06:53:31;95983.41;;;13.60;100.00
54994;BME280;40891;47.242;8.648;2023-05-12T06:55:57;95982.72;;;13.95;99.01
54994;BME280;40891;47.242;8.648;2023-05-12T06:58:23;95987.34;;;13.98;98.31
54994;BME280;40891;47.242;8.648;2023-05-12T07:00:48;95989.81;;;14.10;96.55
54994;BME280;40891;47.242;8.648;2023-05-12T07:03:14;95993.63;;;14.27;95.58
54994;BME280;40891;47.242;8.648;2023-05-12T07:05:39;95986.34;;;14.70;95.31
54994;BME280;40891;47.242;8.648;2023-05-12T07:08:05;95981.94;;;14.84;92.08
54994;BME280;40891;47.242;8.648;2023-05-12T07:10:30;95978.78;;;14.96;93.58
54994;BME280;40891;47.242;8.648;2023-05-12T07:12:57;95980.47;;;14.88;95.57
54994;BME280;40891;47.242;8.648;2023-05-12T07:15:22;95982.22;;;15.06;95.07
54994;BME280;40891;47.242;8.648;2023-05-12T07:17:47;95980.56;;;15.20;93.80
54994;BME280;40891;47.242;8.648;2023-05-12T07:20:13;95985.72;;;15.47;93.23
54994;BME280;40891;47.242;8.648;2023-05-12T07:22:38;95977.78;;;15.71;91.14
54994;BME280;40891;47.242;8.648;2023-05-12T07:25:04;95982.13;;;15.72;89.21
54994;BME280;40891;47.242;8.648;2023-05-12T07:27:30;95979.25;;;15.61;90.91
54994;BME280;40891;47.242;8.648;2023-05-12T07:29:55;95974.88;;;15.34;88.49
54994;BME280;40891;47.242;8.648;2023-05-12T07:32:21;95978.19;;;15.13;91.57
54994;BME280;40891;47.242;8.648;2023-05-12T07:34:46;95977.44;;;15.12;94.46
54994;BME280;40891;47.242;8.648;2023-05-12T07:37:11;95989.00;;;14.99;92.93
54994;BME280;40891;47.242;8.648;2023-05-12T07:39:36;95980.63;;;14.99;91.22
54994;BME280;40891;47.242;8.648;2023-05-12T07:42:02;95980.34;;;14.97;88.83
54994;BME280;40891;47.242;8.648;2023-05-12T07:44:28;95974.66;;;15.38;88.42
54994;BME280;40891;47.242;8.648;2023-05-12T07:46:53;95981.25;;;15.35;85.92
54994;BME280;40891;47.242;8.648;2023-05-12T07:49:18;95965.41;;;15.52;88.94
54994;BME280;40891;47.242;8.648;2023-05-12T07:51:43;95974.22;;;15.71;90.89
54994;BME280;40891;47.242;8.648;2023-05-12T07:54:09;95963.63;;;16.17;87.11
54994;BME280;40891;47.242;8.648;2023-05-12T07:56:34;95964.53;;;16.40;84.35
54994;BME280;40891;47.242;8.648;2023-05-12T07:59:00;95963.16;;;16.61;76.17
54994;BME280;40891;47.242;8.648;2023-05-12T08:01:25;95964.22;;;16.32;79.90
54994;BME280;40891;47.242;8.648;2023-05-12T08:03:50;95966.22;;;16.63;83.69
54994;BME280;40891;47.242;8.648;2023-05-12T08:06:16;95968.94;;;16.52;84.12
54994;BME280;40891;47.242;8.648;2023-05-12T08:08:42;95956.13;;;16.93;83.24
54994;BME280;40891;47.242;8.648;2023-05-12T08:11:08;95954.09;;;16.99;80.57
54994;BME280;40891;47.242;8.648;2023-05-12T08:13:35;95967.97;;;17.19;78.52
54994;BME280;40891;47.242;8.648;2023-05-12T08:16:00;95964.41;;;17.24;76.89
54994;BME280;40891;47.242;8.648;2023-05-12T08:18:26;95965.16;;;17.19;78.35
54994;BME280;40891;47.242;8.648;2023-05-12T08:20:51;95961.38;;;17.44;76.83
54994;BME280;40891;47.242;8.648;2023-05-12T08:23:16;95966.22;;;17.38;77.77
54994;BME280;40891;47.242;8.648;2023-05-12T08:25:42;95957.59;;;17.58;77.81
54994;BME280;40891;47.242;8.648;2023-05-12T08:28:09;95950.72;;;17.82;76.93
54994;BME280;40891;47.242;8.648;2023-05-12T08:30:35;95948.16;;;17.95;76.61
54994;BME280;40891;47.242;8.648;2023-05-12T08:33:01;95945.56;;;18.08;75.25
54994;BME280;40891;47.242;8.648;2023-05-12T08:35:27;95955.81;;;17.66;70.64
54994;BME280;40891;47.242;8.648;2023-05-12T08:37:53;95950.13;;;17.33;73.52
54994;BME280;40891;47.242;8.648;2023-05-12T08:40:23;95959.28;;;17.17;76.72
54994;BME280;40891;47.242;8.648;2023-05-12T08:42:58;95963.00;;;16.92;77.24
54994;BME280;40891;47.242;8.648;2023-05-12T08:45:28;95960.75;;;16.96;78.30
54994;BME280;40891;47.242;8.648;2023-05-12T08:47:54;95955.72;;;17.22;76.64
54994;BME280;40891;47.242;8.648;2023-05-12T08:50:21;95961.88;;;17.37;78.47
54994;BME280;40891;47.242;8.648;2023-05-12T08:52:47;95955.81;;;17.78;75.86
54994;BME280;40891;47.242;8.648;2023-05-12T08:55:13;95951.72;;;18.01;71.33
54994;BME280;40891;47.242;8.648;2023-05-12T08:57:40;95947.63;;;18.24;72.96
54994;BME280;40891;47.242;8.648;2023-05-12T09:00:10;95944.25;;;18.36;69.45
54994;BME280;40891;47.242;8.648;2023-05-12T09:02:38;95941.41;;;18.53;74.41
54994;BME280;40891;47.242;8.648;2023-05-12T09:05:04;95948.00;;;18.72;68.63
54994;BME280;40891;47.242;8.648;2023-05-12T09:07:30;95953.66;;;18.72;69.15
54994;BME280;40891;47.242;8.648;2023-05-12T09:09:57;95943.16;;;18.78;68.33
54994;BME280;40891;47.242;8.648;2023-05-12T09:12:30;95948.84;;;18.34;68.93
54994;BME280;40891;47.242;8.648;2023-05-12T09:15:09;95942.69;;;18.41;70.32
54994;BME280;40891;47.242;8.648;2023-05-12T09:17:35;95949.63;;;18.29;66.94
54994;BME280;40891;47.242;8.648;2023-05-12T09:20:01;95953.94;;;18.58;67.52
54994;BME280;40891;47.242;8.648;2023-05-12T09:22:31;95945.84;;;19.00;70.61
54994;BME280;40891;47.242;8.648;2023-05-12T09:25:00;95943.34;;;18.91;68.26
54994;BME280;40891;47.242;8.648;2023-05-12T09:27:27;95945.13;;;18.94;65.19
54994;BME280;40891;47.242;8.648;2023-05-12T09:29:52;95950.09;;;18.55;66.35
54994;BME280;40891;47.242;8.648;2023-05-12T09:32:31;95948.84;;;18.34;64.79
54994;BME280;40891;47.242;8.648;2023-05-12T09:35:01;95947.34;;;18.27;63.83
54994;BME280;40891;47.242;8.648;2023-05-12T09:37:32;95943.78;;;18.21;66.05
54994;BME280;40891;47.242;8.648;2023-05-12T09:40:02;95938.63;;;18.36;65.50
54994;BME280;40891;47.242;8.648;2023-05-12T09:42:29;95946.28;;;18.58;67.44
54994;BME280;40891;47.242;8.648;2023-05-12T09:45:13;95939.78;;;18.85;66.12
54994;BME280;40891;47.242;8.648;2023-05-12T09:47:39;95933.53;;;19.09;63.00
54994;BME280;40891;47.242;8.648;2023-05-12T09:50:07;95937.69;;;18.91;65.59
54994;BME280;40891;47.242;8.648;2023-05-12T09:52:37;95937.34;;;18.32;63.23
54994;BME280;40891;47.242;8.648;2023-05-12T09:55:07;95940.47;;;18.06;66.19
54994;BME280;40891;47.242;8.648;2023-05-12T09:57:39;95940.22;;;18.10;67.04
54994;BME280;40891;47.242;8.648;2023-05-12T10:00:10;95938.94;;;17.94;65.03
54994;BME280;40891;47.242;8.648;2023-05-12T10:02:39;95937.13;;;17.97;65.40
54994;BME280;40891;47.242;8.648;2023-05-12T10:05:12;95931.25;;;18.06;66.88
54994;BME280;40891;47.242;8.648;2023-05-12T10:07:39;95938.13;;;18.27;69.71
54994;BME280;40891;47.242;8.648;2023-05-12T10:10:05;95925.63;;;18.06;66.84
54994;BME280;40891;47.242;8.648;2023-05-12T10:12:32;95926.41;;;17.62;64.54
54994;BME280;40891;47.242;8.648;2023-05-12T10:15:00;95919.50;;;18.02;65.07
54994;BME280;40891;47.242;8.648;2023-05-12T10:17:26;95934.47;;;18.65;64.29
54994;BME280;40891;47.242;8.648;2023-05-12T10:19:53;95918.94;;;19.87;60.95
54994;BME280;40891;47.242;8.648;2023-05-12T10:22:19;95923.19;;;20.28;55.85
54994;BME280;40891;47.242;8.648;2023-05-12T10:24:45;95918.81;;;20.76;58.30
54994;BME280;40891;47.242;8.648;2023-05-12T10:27:13;95909.72;;;21.26;55.52
54994;BME280;40891;47.242;8.648;2023-05-12T10:29:40;95905.13;;;21.92;51.11
54994;BME280;40891;47.242;8.648;2023-05-12T10:32:06;95906.25;;;22.02;47.66
54994;BME280;40891;47.242;8.648;2023-05-12T10:34:36;95911.34;;;22.03;52.40
54994;BME280;40891;47.242;8.648;2023-05-12T10:37:06;95908.00;;;22.05;49.26
54994;BME280;40891;47.242;8.648;2023-05-12T10:39:36;95903.56;;;22.22;49.14
54994;BME280;40891;47.242;8.648;2023-05-12T10:42:05;95905.91;;;22.05;50.87
54994;BME280;40891;47.242;8.648;2023-05-12T10:44:31;95910.38;;;22.01;50.72
54994;BME280;40891;47.242;8.648;2023-05-12T10:46:57;95903.19;;;22.00;50.22
54994;BME280;40891;47.242;8.648;2023-05-12T10:49:38;95904.88;;;22.34;50.65
54994;BME280;40891;47.242;8.648;2023-05-12T10:52:04;95905.44;;;21.88;50.98
54994;BME280;40891;47.242;8.648;2023-05-12T10:54:40;95899.13;;;23.06;48.29
54994;BME280;40891;47.242;8.648;2023-05-12T10:57:18;95892.03;;;23.59;46.97
54994;BME280;40891;47.242;8.648;2023-05-12T10:59:55;95881.66;;;24.44;48.85
54994;BME280;40891;47.242;8.648;2023-05-12T11:02:26;95881.25;;;24.76;44.13
54994;BME280;40891;47.242;8.648;2023-05-12T11:05:02;95883.41;;;24.83;43.98
54994;BME280;40891;47.242;8.648;2023-05-12T11:07:30;95881.94;;;24.89;41.71
54994;BME280;40891;47.242;8.648;2023-05-12T11:09:58;95894.13;;;24.97;41.67
54994;BME280;40891;47.242;8.648;2023-05-12T11:12:25;95888.75;;;24.86;40.69
54994;BME280;40891;47.242;8.648;2023-05-12T11:14:51;95884.00;;;24.81;41.22
54994;BME280;40891;47.242;8.648;2023-05-12T11:17:16;95885.59;;;24.97;42.54
54994;BME280;40891;47.242;8.648;2023-05-12T11:19:47;95887.69;;;25.40;41.49
54994;BME280;40891;47.242;8.648;2023-05-12T11:22:12;95880.22;;;26.03;40.68
54994;BME280;40891;47.242;8.648;2023-05-12T11:24:39;95878.53;;;26.00;40.58
54994;BME280;40891;47.242;8.648;2023-05-12T11:27:10;95881.75;;;26.65;40.89
54994;BME280;40891;47.242;8.648;2023-05-12T11:29:35;95885.91;;;27.56;36.67
54994;BME280;40891;47.242;8.648;2023-05-12T11:32:02;95883.03;;;27.89;36.09
54994;BME280;40891;47.242;8.648;2023-05-12T11:34:27;95878.56;;;28.52;31.56
54994;BME280;40891;47.242;8.648;2023-05-12T11:36:54;95871.34;;;29.10;30.73
54994;BME280;40891;47.242;8.648;2023-05-12T11:39:22;95871.38;;;29.98;31.96
54994;BME280;40891;47.242;8.648;2023-05-12T11:41:49;95870.84;;;31.20;29.58
54994;BME280;40891;47.242;8.648;2023-05-12T11:44:16;95881.13;;;31.23;30.37
54994;BME280;40891;47.242;8.648;2023-05-12T11:46:58;95884.03;;;28.65;30.68
54994;BME280;40891;47.242;8.648;2023-05-12T11:49:25;95875.09;;;28.37;32.22
54994;BME280;40891;47.242;8.648;2023-05-12T11:51:53;95884.22;;;27.46;33.97
54994;BME280;40891;47.242;8.648;2023-05-12T11:54:19;95880.06;;;26.31;37.84
54994;BME280;40891;47.242;8.648;2023-05-12T11:56:53;95894.69;;;25.39;38.09
54994;BME280;40891;47.242;8.648;2023-05-12T11:59:44;95882.41;;;25.52;39.21
54994;BME280;40891;47.242;8.648;2023-05-12T12:02:20;95868.06;;;27.41;36.16
54994;BME280;40891;47.242;8.648;2023-05-12T12:04:46;95871.81;;;26.96;35.49
54994;BME280;40891;47.242;8.648;2023-05-12T12:07:11;95885.75;;;26.09;35.34
54994;BME280;40891;47.242;8.648;2023-05-12T12:09:38;95890.91;;;25.01;39.28
54994;BME280;40891;47.242;8.648;2023-05-12T12:12:06;95881.72;;;25.23;39.36
54994;BME280;40891;47.242;8.648;2023-05-12T12:14:33;95875.47;;;26.89;35.60
54994;BME280;40891;47.242;8.648;2023-05-12T12:16:59;95872.25;;;28.54;32.08
54994;BME280;40891;47.242;8.648;2023-05-12T12:19:25;95870.06;;;29.38;31.77
54994;BME280;40891;47.242;8.648;2023-05-12T12:21:52;95875.66;;;29.80;28.89
54994;BME280;40891;47.242;8.648;2023-05-12T12:24:17;95867.28;;;30.73;29.87
54994;BME280;40891;47.242;8.648;2023-05-12T12:26:42;95858.00;;;31.49;29.12
54994;BME280;40891;47.242;8.648;2023-05-12T12:29:08;95852.25;;;33.01;27.11
54994;BME280;40891;47.242;8.648;2023-05-12T12:31:33;95860.88;;;33.65;24.84
54994;BME280;40891;47.242;8.648;2023-05-12T12:34:00;95846.19;;;32.76;25.33
54994;BME280;40891;47.242;8.648;2023-05-12T12:36:26;95860.41;;;31.05;27.48
54994;BME280;40891;47.242;8.648;2023-05-12T12:38:51;95874.47;;;29.22;30.09
54994;BME280;40891;47.242;8.648;2023-05-12T12:41:17;95872.91;;;27.16;32.24
54994;BME280;40891;47.242;8.648;2023-05-12T12:43:42;95883.00;;;25.50;34.47
54994;BME280;40891;47.242;8.648;2023-05-12T12:46:08;95882.94;;;24.43;37.21
54994;BME280;40891;47.242;8.648;2023-05-12T12:48:34;95880.69;;;23.80;38.38
54994;BME280;40891;47.242;8.648;2023-05-12T12:51:00;95878.59;;;23.59;39.88